createdAt,value
2023-02-22T00:01:35.944Z,11.51
2023-02-22T00:04:07.101Z,11.50
2023-02-22T00:06:34.231Z,11.50
2023-02-22T00:09:02.529Z,11.56
2023-02-22T00:11:29.285Z,11.38
2023-02-22T00:13:57.529Z,11.44
2023-02-22T00:16:25.860Z,11.43
2023-02-22T00:18:53.213Z,11.41
2023-02-22T00:21:19.843Z,11.43
2023-02-22T00:23:47.870Z,11.37
2023-02-22T00:26:18.377Z,11.35
2023-02-22T00:28:50.089Z,11.36
2023-02-22T00:31:17.372Z,11.27
2023-02-22T00:33:44.455Z,11.24
2023-02-22T00:36:12.753Z,11.28
2023-02-22T00:38:41.405Z,11.28
2023-02-22T00:41:08.248Z,11.27
2023-02-22T00:43:34.909Z,11.27
2023-02-22T00:46:01.935Z,11.28
2023-02-22T00:48:29.236Z,11.28
2023-02-22T00:50:55.857Z,11.26
2023-02-22T00:53:24.272Z,11.29
2023-02-22T00:55:50.911Z,11.30
2023-02-22T00:58:18.645Z,11.30
2023-02-22T01:00:45.822Z,11.32
2023-02-22T01:03:15.843Z,11.31
2023-02-22T01:05:42.928Z,11.34
2023-02-22T01:08:11.656Z,11.40
2023-02-22T01:10:39.554Z,11.37
2023-02-22T01:13:09.289Z,11.40
2023-02-22T01:15:37.718Z,11.34
2023-02-22T01:18:05.501Z,11.22
2023-02-22T01:20:32.605Z,11.20
2023-02-22T01:23:03.543Z,11.14
2023-02-22T01:25:31.472Z,11.13
2023-02-22T01:28:00.488Z,11.16
2023-02-22T01:30:32.858Z,11.18
2023-02-22T01:33:01.732Z,11.12
2023-02-22T01:35:34.277Z,11.06
2023-02-22T01:38:01.100Z,11.06
2023-02-22T01:40:37.659Z,11.08
2023-02-22T01:43:16.397Z,11.10
2023-02-22T01:45:48.847Z,11.07
2023-02-22T01:48:35.972Z,11.08
2023-02-22T01:51:13.733Z,11.12
2023-02-22T01:53:47.311Z,11.11
2023-02-22T01:56:14.713Z,11.03
2023-02-22T01:58:45.155Z,11.11
2023-02-22T02:01:12.581Z,11.15
2023-02-22T02:03:41.373Z,11.16
2023-02-22T02:06:12.500Z,11.09
2023-02-22T02:08:47.522Z,10.98
2023-02-22T02:11:14.268Z,10.86
2023-02-22T02:13:41.613Z,10.90
2023-02-22T02:16:08.204Z,10.90
2023-02-22T02:18:35.660Z,10.91
2023-02-22T02:21:10.961Z,10.85
2023-02-22T02:23:49.539Z,10.82
2023-02-22T02:26:27.650Z,10.84
2023-02-22T02:28:56.933Z,10.83
2023-02-22T02:31:35.321Z,10.82
2023-02-22T02:34:31.966Z,10.83
2023-02-22T02:37:10.500Z,10.81
2023-02-22T02:39:56.047Z,10.82
2023-02-22T02:42:28.440Z,10.80
2023-02-22T02:45:16.046Z,10.79
2023-02-22T02:47:48.508Z,10.74
2023-02-22T02:50:22.661Z,10.73
2023-02-22T02:52:51.382Z,10.81
2023-02-22T02:55:18.922Z,10.76
2023-02-22T02:57:45.541Z,10.77
2023-02-22T03:00:24.017Z,10.77
2023-02-22T03:03:07.801Z,10.72
2023-02-22T03:05:55.756Z,10.73
2023-02-22T03:08:34.750Z,10.72
2023-02-22T03:11:15.196Z,10.68
2023-02-22T03:14:03.376Z,10.64
2023-02-22T03:16:52.902Z,10.62
2023-02-22T03:19:34.799Z,10.50
2023-02-22T03:22:12.045Z,10.42
2023-02-22T03:24:53.843Z,10.46
2023-02-22T03:27:33.964Z,10.39
2023-02-22T03:30:09.694Z,10.34
2023-02-22T03:32:41.574Z,10.32
2023-02-22T03:35:13.124Z,10.28
2023-02-22T03:37:44.417Z,10.27
2023-02-22T03:40:17.059Z,10.31
2023-02-22T03:42:49.001Z,10.35
2023-02-22T03:45:18.601Z,10.33
2023-02-22T03:47:53.177Z,10.30
2023-02-22T03:50:26.366Z,10.32
2023-02-22T03:52:53.711Z,10.25
2023-02-22T03:55:20.485Z,10.17
2023-02-22T03:57:52.042Z,10.31
2023-02-22T04:00:23.087Z,10.27
2023-02-22T04:02:50.113Z,10.20
2023-02-22T04:05:17.220Z,10.17
2023-02-22T04:07:44.237Z,10.23
2023-02-22T04:10:13.134Z,10.25
2023-02-22T04:12:40.406Z,10.27
2023-02-22T04:15:08.469Z,10.32
2023-02-22T04:17:35.100Z,10.32
2023-02-22T04:20:01.607Z,10.32
2023-02-22T04:22:28.154Z,10.31
2023-02-22T04:24:54.817Z,10.28
2023-02-22T04:27:21.472Z,10.32
2023-02-22T04:29:47.984Z,10.38
2023-02-22T04:32:15.500Z,10.43
2023-02-22T04:34:42.751Z,10.44
2023-02-22T04:37:10.502Z,10.49
2023-02-22T04:39:37.069Z,10.60
2023-02-22T04:42:05.076Z,10.65
2023-02-22T04:44:32.054Z,10.64
2023-02-22T04:46:58.659Z,10.66
2023-02-22T04:49:25.161Z,10.66
2023-02-22T04:51:51.755Z,10.67
2023-02-22T04:54:18.479Z,10.71
2023-02-22T04:56:45.468Z,10.72
2023-02-22T04:59:12.469Z,10.66
2023-02-22T05:01:39.314Z,10.68
2023-02-22T05:04:07.582Z,10.70
2023-02-22T05:06:34.512Z,10.67
2023-02-22T05:09:01.054Z,10.68
2023-02-22T05:11:27.829Z,10.70
2023-02-22T05:13:54.381Z,10.70
2023-02-22T05:16:21.435Z,10.67
2023-02-22T05:18:47.953Z,10.63
2023-02-22T05:21:15.126Z,10.60
2023-02-22T05:23:41.966Z,10.67
2023-02-22T05:26:10.737Z,10.61
2023-02-22T05:28:38.108Z,10.63
2023-02-22T05:31:04.897Z,10.62
2023-02-22T05:33:31.533Z,10.64
2023-02-22T05:35:58.088Z,10.88
2023-02-22T05:38:24.913Z,10.76
2023-02-22T05:40:51.762Z,10.70
2023-02-22T05:43:18.298Z,10.70
2023-02-22T05:45:45.353Z,10.67
2023-02-22T05:48:13.024Z,10.80
2023-02-22T05:50:39.675Z,10.68
2023-02-22T05:53:06.473Z,10.49
2023-02-22T05:55:33.114Z,10.54
2023-02-22T05:57:59.673Z,10.59
2023-02-22T06:00:29.397Z,10.47
2023-02-22T06:02:55.961Z,10.40
2023-02-22T06:05:22.786Z,10.35
2023-02-22T06:07:49.415Z,10.45
2023-02-22T06:10:16.701Z,10.47
2023-02-22T06:12:44.404Z,10.52
2023-02-22T06:15:10.992Z,10.50
2023-02-22T06:17:37.892Z,10.56
2023-02-22T06:20:04.811Z,10.60
2023-02-22T06:22:31.337Z,10.59
2023-02-22T06:24:57.895Z,10.69
2023-02-22T06:27:24.391Z,10.72
2023-02-22T06:29:50.961Z,10.61
2023-02-22T06:32:18.068Z,10.60
2023-02-22T06:34:44.720Z,10.58
2023-02-22T06:37:11.749Z,10.61
2023-02-22T06:39:38.343Z,10.67
2023-02-22T06:42:05.256Z,10.76
2023-02-22T06:44:31.818Z,10.74
2023-02-22T06:46:59.674Z,10.70
2023-02-22T06:49:27.519Z,10.69
2023-02-22T06:51:54.808Z,10.72
2023-02-22T06:54:22.485Z,10.71
2023-02-22T06:56:50.051Z,10.64
2023-02-22T06:59:16.846Z,10.63
2023-02-22T07:01:43.796Z,10.64
2023-02-22T07:04:11.540Z,10.67
2023-02-22T07:06:38.201Z,10.69
2023-02-22T07:09:04.744Z,10.60
2023-02-22T07:11:31.502Z,10.69
2023-02-22T07:13:58.066Z,10.73
2023-02-22T07:16:24.686Z,10.69
2023-02-22T07:18:51.468Z,10.71
2023-02-22T07:21:19.746Z,10.74
2023-02-22T07:23:53.925Z,10.75
2023-02-22T07:26:21.543Z,10.76
2023-02-22T07:28:48.588Z,10.84
2023-02-22T07:31:16.068Z,10.81
2023-02-22T07:33:42.877Z,10.67
2023-02-22T07:36:09.837Z,10.71
2023-02-22T07:38:36.449Z,10.70
2023-02-22T07:41:03.103Z,10.78
2023-02-22T07:43:31.554Z,10.95
2023-02-22T07:46:00.263Z,10.87
2023-02-22T07:48:30.057Z,10.81
2023-02-22T07:50:57.687Z,10.82
2023-02-22T07:53:30.381Z,10.79
2023-02-22T07:55:58.480Z,10.79
2023-02-22T07:58:27.105Z,10.86
2023-02-22T08:00:54.644Z,10.84
2023-02-22T08:03:24.307Z,10.93
2023-02-22T08:05:57.194Z,11.00
2023-02-22T08:08:24.197Z,10.99
2023-02-22T08:10:51.915Z,10.98
2023-02-22T08:13:20.085Z,11.01
2023-02-22T08:15:49.549Z,11.05
2023-02-22T08:18:18.436Z,11.06
2023-02-22T08:20:46.533Z,11.00
2023-02-22T08:23:15.321Z,11.06
2023-02-22T08:25:41.933Z,11.10
2023-02-22T08:28:15.160Z,11.09
2023-02-22T08:30:45.086Z,11.09
2023-02-22T08:33:15.903Z,11.02
2023-02-22T08:35:43.127Z,11.06
2023-02-22T08:38:20.679Z,11.16
2023-02-22T08:40:48.248Z,11.04
2023-02-22T08:43:14.811Z,10.91
2023-02-22T08:45:42.276Z,11.08
2023-02-22T08:48:08.891Z,11.13
2023-02-22T08:50:35.778Z,11.18
2023-02-22T08:53:04.380Z,11.21
2023-02-22T08:55:37.191Z,11.28
2023-02-22T08:58:05.599Z,11.21
2023-02-22T09:00:33.560Z,11.10
2023-02-22T09:03:03.601Z,11.15
2023-02-22T09:05:31.577Z,11.20
2023-02-22T09:07:59.014Z,11.18
2023-02-22T09:10:29.001Z,11.14
2023-02-22T09:12:56.666Z,11.03
2023-02-22T09:15:25.509Z,10.97
2023-02-22T09:17:53.119Z,10.77
2023-02-22T09:20:22.676Z,10.77
2023-02-22T09:22:49.988Z,10.83
2023-02-22T09:25:17.839Z,10.98
2023-02-22T09:27:47.996Z,11.09
2023-02-22T09:30:35.063Z,11.49
2023-02-22T09:33:10.099Z,11.49
2023-02-22T09:35:42.275Z,11.41
2023-02-22T09:38:10.644Z,11.30
2023-02-22T09:40:45.148Z,11.23
2023-02-22T09:43:24.384Z,11.21
2023-02-22T09:46:13.656Z,11.18
2023-02-22T09:49:02.079Z,11.17
2023-02-22T09:51:43.329Z,11.26
2023-02-22T09:54:25.082Z,11.20
2023-02-22T09:56:56.055Z,11.31
2023-02-22T09:59:28.806Z,11.30
2023-02-22T10:02:15.299Z,11.04
2023-02-22T10:05:01.044Z,11.14
2023-02-22T10:07:37.127Z,11.36
2023-02-22T10:10:06.659Z,11.20
2023-02-22T10:13:14.291Z,11.18
2023-02-22T10:15:43.583Z,11.34
2023-02-22T10:18:25.573Z,11.51
2023-02-22T10:21:02.739Z,11.43
2023-02-22T10:23:46.441Z,11.35
2023-02-22T10:26:42.801Z,11.43
2023-02-22T10:29:32.888Z,11.57
2023-02-22T10:32:04.945Z,11.66
2023-02-22T10:34:45.968Z,11.74
2023-02-22T10:37:26.311Z,11.81
2023-02-22T10:40:23.018Z,11.96
2023-02-22T10:42:50.457Z,11.96
2023-02-22T10:45:30.252Z,12.21
2023-02-22T10:48:00.425Z,12.25
2023-02-22T10:50:29.631Z,12.32
2023-02-22T10:52:56.341Z,12.58
2023-02-22T10:55:23.098Z,12.68
2023-02-22T10:57:59.119Z,12.64
2023-02-22T11:00:38.862Z,12.38
2023-02-22T11:03:21.867Z,12.21
2023-02-22T11:05:49.478Z,12.32
2023-02-22T11:08:33.199Z,12.51
2023-02-22T11:11:20.361Z,12.48
2023-02-22T11:13:55.464Z,12.55
2023-02-22T11:16:34.203Z,12.51
2023-02-22T11:19:25.718Z,12.50
2023-02-22T11:21:56.354Z,12.55
2023-02-22T11:24:30.413Z,12.54
2023-02-22T11:27:02.922Z,12.33
2023-02-22T11:29:36.422Z,12.37
2023-02-22T11:32:22.433Z,12.42
2023-02-22T11:35:03.651Z,12.53
2023-02-22T11:37:37.012Z,12.85
2023-02-22T11:40:06.840Z,13.02
2023-02-22T11:42:33.845Z,13.17
2023-02-22T11:45:24.806Z,13.35
2023-02-22T11:48:00.822Z,13.26
2023-02-22T11:50:42.087Z,13.19
2023-02-22T11:53:45.076Z,13.10
2023-02-22T11:56:40.351Z,12.87
2023-02-22T11:59:55.902Z,12.77
2023-02-22T12:02:25.088Z,12.67
2023-02-22T12:04:51.664Z,12.83
2023-02-22T12:07:21.255Z,12.88
2023-02-22T12:09:53.615Z,13.08
2023-02-22T12:12:57.405Z,13.29
2023-02-22T12:15:49.018Z,13.59
2023-02-22T12:18:35.677Z,13.63
2023-02-22T12:21:09.218Z,13.34
2023-02-22T12:23:50.740Z,13.16
2023-02-22T12:26:41.335Z,13.15
2023-02-22T12:29:53.116Z,13.20
2023-02-22T12:32:32.701Z,13.20
2023-02-22T12:35:10.028Z,13.01
2023-02-22T12:37:39.562Z,12.95
2023-02-22T12:40:23.549Z,13.05
2023-02-22T12:43:22.840Z,12.98
2023-02-22T12:46:13.764Z,12.93
2023-02-22T12:48:54.268Z,12.85
2023-02-22T12:51:43.993Z,12.66
2023-02-22T12:54:22.332Z,12.66
2023-02-22T12:57:01.473Z,12.83
2023-02-22T13:00:15.645Z,12.94
2023-02-22T13:02:48.985Z,12.96
2023-02-22T13:05:20.694Z,13.01
2023-02-22T13:07:53.326Z,13.04
2023-02-22T13:10:29.765Z,13.17
2023-02-22T13:13:29.007Z,13.09
2023-02-22T13:16:16.024Z,13.07
2023-02-22T13:18:57.086Z,13.11
2023-02-22T13:21:42.383Z,12.99
2023-02-22T13:24:23.897Z,12.95
2023-02-22T13:27:11.756Z,12.91
2023-02-22T13:29:42.048Z,12.99
2023-02-22T13:32:29.081Z,13.10
2023-02-22T13:35:35.609Z,13.42
2023-02-22T13:38:08.550Z,13.72
2023-02-22T13:40:59.931Z,13.88
2023-02-22T13:43:54.250Z,13.69
2023-02-22T13:46:32.630Z,13.69
2023-02-22T13:49:11.272Z,13.54
2023-02-22T13:51:55.803Z,13.63
2023-02-22T13:55:01.446Z,13.67
2023-02-22T13:57:40.285Z,13.72
2023-02-22T14:00:15.963Z,13.66
2023-02-22T14:03:03.511Z,13.70
2023-02-22T14:05:38.018Z,13.75
2023-02-22T14:08:05.651Z,13.81
2023-02-22T14:10:55.461Z,13.85
2023-02-22T14:13:23.760Z,13.85
2023-02-22T14:16:02.526Z,13.73
2023-02-22T14:18:44.330Z,13.73
2023-02-22T14:21:20.538Z,13.81
2023-02-22T14:23:49.725Z,13.85
2023-02-22T14:26:34.475Z,13.97
2023-02-22T14:29:02.848Z,13.79
2023-02-22T14:31:36.987Z,13.99
2023-02-22T14:34:14.843Z,14.10
2023-02-22T14:36:50.876Z,14.15
2023-02-22T14:39:34.403Z,14.19
2023-02-22T14:42:27.029Z,14.22
2023-02-22T14:45:03.146Z,14.14
2023-02-22T14:47:39.990Z,14.10
2023-02-22T14:50:41.983Z,14.25
2023-02-22T14:53:24.070Z,14.27
2023-02-22T14:56:02.896Z,14.28
2023-02-22T14:58:45.271Z,14.16
2023-02-22T15:01:44.418Z,13.93
2023-02-22T15:04:26.686Z,13.92
2023-02-22T15:06:55.697Z,14.12
2023-02-22T15:09:30.618Z,14.18
2023-02-22T15:12:04.304Z,14.08
2023-02-22T15:14:37.644Z,13.93
2023-02-22T15:17:22.924Z,13.77
2023-02-22T15:19:50.405Z,13.75
2023-02-22T15:22:26.144Z,13.68
2023-02-22T15:25:00.433Z,13.64
2023-02-22T15:27:28.310Z,13.57
2023-02-22T15:30:04.601Z,13.59
2023-02-22T15:32:37.043Z,13.59
2023-02-22T15:35:17.475Z,13.60
2023-02-22T15:37:46.378Z,13.53
2023-02-22T15:40:18.651Z,13.45
2023-02-22T15:42:53.186Z,13.47
2023-02-22T15:45:22.439Z,13.34
2023-02-22T15:47:49.888Z,13.02
2023-02-22T15:50:33.963Z,12.68
2023-02-22T15:53:24.009Z,12.50
2023-02-22T15:55:58.081Z,12.52
2023-02-22T15:58:29.124Z,12.37
2023-02-22T16:01:08.133Z,12.41
2023-02-22T16:03:47.178Z,12.29
2023-02-22T16:06:36.620Z,12.26
2023-02-22T16:09:10.417Z,12.19
2023-02-22T16:11:43.260Z,12.22
2023-02-22T16:14:28.074Z,12.22
2023-02-22T16:17:31.091Z,12.19
2023-02-22T16:20:05.483Z,12.22
2023-02-22T16:22:35.877Z,12.25
2023-02-22T16:25:25.115Z,12.16
2023-02-22T16:28:06.222Z,12.28
2023-02-22T16:30:39.494Z,12.32
2023-02-22T16:33:13.951Z,12.32
2023-02-22T16:35:41.096Z,12.32
2023-02-22T16:38:17.091Z,12.31
2023-02-22T16:40:52.495Z,12.36
2023-02-22T16:43:24.647Z,12.40
2023-02-22T16:45:53.066Z,12.36
2023-02-22T16:48:24.435Z,12.38
2023-02-22T16:50:53.326Z,12.33
2023-02-22T16:53:22.343Z,12.30
2023-02-22T16:55:50.843Z,12.29
2023-02-22T16:58:19.277Z,12.19
2023-02-22T17:00:45.892Z,12.26
2023-02-22T17:03:17.731Z,12.14
2023-02-22T17:05:44.636Z,12.16
2023-02-22T17:08:11.196Z,12.10
2023-02-22T17:10:37.990Z,12.05
2023-02-22T17:13:21.607Z,12.09
2023-02-22T17:15:49.652Z,12.09
2023-02-22T17:18:23.339Z,12.08
2023-02-22T17:20:51.157Z,12.10
2023-02-22T17:23:19.185Z,12.11
2023-02-22T17:25:51.241Z,12.13
2023-02-22T17:28:18.086Z,12.13
2023-02-22T17:30:48.320Z,12.07
2023-02-22T17:33:17.903Z,12.06
2023-02-22T17:35:45.412Z,12.07
2023-02-22T17:38:11.992Z,12.01
2023-02-22T17:40:40.113Z,12.04
2023-02-22T17:43:08.875Z,11.98
2023-02-22T17:45:38.985Z,12.04
2023-02-22T17:48:05.769Z,12.02
2023-02-22T17:50:32.396Z,12.08
2023-02-22T17:53:00.658Z,12.05
2023-02-22T17:55:27.925Z,12.05
2023-02-22T17:57:59.411Z,11.96
2023-02-22T18:00:35.304Z,11.99
2023-02-22T18:03:07.721Z,11.93
2023-02-22T18:05:47.068Z,11.92
2023-02-22T18:08:14.774Z,11.93
2023-02-22T18:10:42.738Z,11.96
2023-02-22T18:13:10.252Z,11.99
2023-02-22T18:15:39.533Z,11.98
2023-02-22T18:18:06.472Z,11.94
2023-02-22T18:20:39.605Z,11.90
2023-02-22T18:23:07.727Z,11.93
2023-02-22T18:25:35.909Z,11.89
2023-02-22T18:28:07.018Z,11.91
2023-02-22T18:30:37.818Z,11.89
2023-02-22T18:33:04.508Z,11.86
2023-02-22T18:35:31.540Z,11.82
2023-02-22T18:38:01.208Z,11.82
2023-02-22T18:40:27.802Z,11.84
2023-02-22T18:42:54.337Z,11.84
2023-02-22T18:45:22.834Z,11.84
2023-02-22T18:47:49.584Z,11.82
2023-02-22T18:50:17.299Z,11.78
2023-02-22T18:52:45.867Z,11.79
2023-02-22T18:55:17.637Z,11.78
2023-02-22T18:57:46.030Z,11.76
2023-02-22T19:00:16.188Z,11.75
2023-02-22T19:02:45.909Z,11.71
2023-02-22T19:05:14.131Z,11.70
2023-02-22T19:07:40.716Z,11.68
2023-02-22T19:10:07.862Z,11.62
2023-02-22T19:12:34.658Z,11.61
2023-02-22T19:15:01.448Z,11.62
2023-02-22T19:17:29.795Z,11.61
2023-02-22T19:19:56.771Z,11.59
2023-02-22T19:22:26.375Z,11.54
2023-02-22T19:24:54.262Z,11.53
2023-02-22T19:27:21.645Z,11.53
2023-02-22T19:29:49.426Z,11.52
2023-02-22T19:32:17.438Z,11.49
2023-02-22T19:34:44.701Z,11.49
2023-02-22T19:37:13.095Z,11.49
2023-02-22T19:39:41.847Z,11.51
2023-02-22T19:42:10.273Z,11.49
2023-02-22T19:44:37.393Z,11.48
2023-02-22T19:47:08.987Z,11.45
2023-02-22T19:49:41.028Z,11.38
2023-02-22T19:52:07.577Z,11.42
2023-02-22T19:54:34.144Z,11.35
2023-02-22T19:57:01.156Z,11.28
2023-02-22T19:59:29.073Z,11.28
2023-02-22T20:01:56.848Z,11.22
2023-02-22T20:04:24.299Z,11.18
2023-02-22T20:06:59.518Z,11.16
2023-02-22T20:09:32.150Z,11.16
2023-02-22T20:11:58.858Z,11.24
2023-02-22T20:14:28.689Z,11.16
2023-02-22T20:16:56.598Z,11.03
2023-02-22T20:19:24.601Z,11.00
2023-02-22T20:21:57.854Z,11.00
2023-02-22T20:24:24.906Z,10.98
2023-02-22T20:26:55.771Z,10.96
2023-02-22T20:29:29.440Z,10.92
2023-02-22T20:32:00.669Z,10.97
2023-02-22T20:34:31.373Z,10.87
2023-02-22T20:36:58.296Z,10.91
2023-02-22T20:39:25.050Z,10.86
2023-02-22T20:41:52.700Z,10.85
2023-02-22T20:44:20.493Z,10.88
2023-02-22T20:46:48.089Z,10.86
2023-02-22T20:49:18.372Z,10.81
2023-02-22T20:51:46.037Z,10.81
2023-02-22T20:54:12.832Z,10.80
2023-02-22T20:56:41.966Z,10.84
2023-02-22T20:59:11.912Z,10.80
2023-02-22T21:01:38.712Z,10.88
2023-02-22T21:04:07.080Z,10.88
2023-02-22T21:06:35.398Z,10.91
2023-02-22T21:09:02.975Z,10.88
2023-02-22T21:11:31.645Z,10.89
2023-02-22T21:13:59.994Z,10.83
2023-02-22T21:16:29.541Z,10.89
2023-02-22T21:18:58.763Z,10.90
2023-02-22T21:21:27.043Z,10.91
2023-02-22T21:23:56.470Z,10.80
2023-02-22T21:26:25.118Z,10.80
2023-02-22T21:28:52.686Z,10.88
2023-02-22T21:31:22.334Z,10.87
2023-02-22T21:33:51.801Z,10.92
2023-02-22T21:36:20.046Z,10.95
2023-02-22T21:38:53.352Z,10.87
2023-02-22T21:41:22.207Z,10.94
2023-02-22T21:43:50.843Z,10.92
2023-02-22T21:46:18.400Z,10.94
2023-02-22T21:48:48.741Z,10.90
2023-02-22T21:51:19.304Z,10.95
2023-02-22T21:53:48.033Z,10.96
2023-02-22T21:56:18.978Z,10.81
2023-02-22T21:58:47.051Z,10.76
2023-02-22T22:01:17.366Z,10.87
2023-02-22T22:03:45.942Z,10.81
2023-02-22T22:06:14.584Z,10.84
2023-02-22T22:08:42.910Z,10.76
2023-02-22T22:11:11.618Z,10.78
2023-02-22T22:13:40.476Z,10.80
2023-02-22T22:16:14.833Z,10.82
2023-02-22T22:18:42.875Z,10.82
2023-02-22T22:21:18.752Z,10.92
2023-02-22T22:23:47.350Z,10.86
2023-02-22T22:26:16.904Z,10.92
2023-02-22T22:28:50.552Z,10.98
2023-02-22T22:31:18.259Z,10.97
2023-02-22T22:33:46.298Z,10.95
2023-02-22T22:36:14.767Z,10.97
2023-02-22T22:38:42.008Z,10.96
2023-02-22T22:41:13.281Z,10.97
2023-02-22T22:43:41.424Z,10.95
2023-02-22T22:46:08.922Z,10.95
2023-02-22T22:48:39.174Z,10.98
2023-02-22T22:51:09.904Z,10.93
2023-02-22T22:53:41.812Z,11.01
2023-02-22T22:56:26.950Z,10.97
2023-02-22T22:58:56.335Z,10.97
2023-02-22T23:01:31.631Z,10.99
2023-02-22T23:04:02.771Z,10.93
2023-02-22T23:06:40.787Z,10.98
2023-02-22T23:09:18.620Z,11.06
2023-02-22T23:11:53.565Z,10.99
2023-02-22T23:14:24.177Z,10.98
2023-02-22T23:17:00.134Z,10.97
2023-02-22T23:19:26.742Z,11.03
2023-02-22T23:21:53.497Z,10.95
2023-02-22T23:24:21.781Z,10.91
2023-02-22T23:26:48.797Z,10.86
2023-02-22T23:29:20.821Z,10.84
2023-02-22T23:31:48.932Z,10.86
2023-02-22T23:34:21.439Z,10.83
2023-02-22T23:36:49.486Z,10.79
2023-02-22T23:39:20.858Z,10.80
2023-02-22T23:42:08.262Z,10.77
2023-02-22T23:44:34.878Z,10.78
2023-02-22T23:47:02.469Z,10.76
2023-02-22T23:49:36.080Z,10.77
2023-02-22T23:52:03.934Z,10.77
2023-02-22T23:54:36.759Z,10.78
2023-02-22T23:57:04.458Z,10.75
2023-02-22T23:59:32.734Z,10.75
